createdAt,value
2023-05-10T00:02:13.229Z,13.30
2023-05-10T00:04:43.102Z,13.30
2023-05-10T00:07:12.593Z,13.30
2023-05-10T00:09:42.138Z,13.30
2023-05-10T00:12:11.985Z,13.30
2023-05-10T00:14:41.444Z,13.40
2023-05-10T00:17:11.280Z,13.30
2023-05-10T00:19:40.841Z,13.30
2023-05-10T00:22:11.716Z,13.20
2023-05-10T00:24:41.376Z,13.10
2023-05-10T00:27:11.000Z,13.10
2023-05-10T00:29:40.570Z,13.10
2023-05-10T00:32:11.143Z,13.20
2023-05-10T00:34:41.509Z,13.30
2023-05-10T00:37:10.995Z,13.10
2023-05-10T00:39:40.470Z,13.10
2023-05-10T00:42:10.435Z,13.30
2023-05-10T00:44:39.976Z,13.10
2023-05-10T00:47:10.242Z,13.20
2023-05-10T00:49:40.075Z,13.20
2023-05-10T00:52:10.414Z,13.20
2023-05-10T00:54:40.039Z,13.20
2023-05-10T00:57:09.757Z,13.30
2023-05-10T00:59:39.603Z,13.40
2023-05-10T01:02:09.271Z,13.30
2023-05-10T01:04:40.098Z,13.10
2023-05-10T01:07:10.015Z,13.30
2023-05-10T01:09:40.111Z,13.20
2023-05-10T01:12:09.828Z,13.20
2023-05-10T01:14:40.352Z,13.10
2023-05-10T01:17:10.865Z,13.20
2023-05-10T01:19:40.621Z,13.10
2023-05-10T01:22:34.316Z,13.30
2023-05-10T01:25:35.522Z,13.20
2023-05-10T01:28:33.943Z,13.10
2023-05-10T01:31:09.578Z,13.20
2023-05-10T01:33:45.103Z,13.10
2023-05-10T01:36:28.666Z,13.10
2023-05-10T01:39:01.193Z,13.00
2023-05-10T01:41:43.483Z,13.10
2023-05-10T01:44:21.975Z,13.00
2023-05-10T01:46:57.919Z,12.90
2023-05-10T01:49:30.652Z,13.00
2023-05-10T01:52:03.239Z,13.00
2023-05-10T01:54:34.722Z,12.90
2023-05-10T01:57:10.207Z,12.90
2023-05-10T01:59:42.192Z,12.80
2023-05-10T02:02:13.808Z,12.90
2023-05-10T02:04:44.116Z,13.00
2023-05-10T02:07:15.327Z,12.90
2023-05-10T02:09:49.081Z,12.80
2023-05-10T02:12:20.298Z,12.90
2023-05-10T02:14:51.605Z,12.90
2023-05-10T02:17:21.765Z,12.80
2023-05-10T02:19:53.446Z,12.70
2023-05-10T02:22:24.417Z,12.90
2023-05-10T02:25:41.477Z,12.70
2023-05-10T02:28:13.928Z,12.70
2023-05-10T02:30:54.731Z,12.90
2023-05-10T02:33:25.306Z,12.80
2023-05-10T02:35:55.392Z,12.80
2023-05-10T02:38:26.241Z,12.80
2023-05-10T02:40:57.778Z,12.80
2023-05-10T02:43:27.618Z,12.70
2023-05-10T02:45:59.258Z,12.80
2023-05-10T02:48:29.287Z,12.80
2023-05-10T02:51:01.853Z,12.80
2023-05-10T02:53:34.070Z,12.90
2023-05-10T02:56:08.183Z,12.90
2023-05-10T02:58:37.686Z,12.80
2023-05-10T03:01:08.847Z,12.90
2023-05-10T03:03:38.475Z,12.90
2023-05-10T03:06:08.093Z,12.80
2023-05-10T03:08:38.883Z,12.80
2023-05-10T03:11:19.086Z,12.90
2023-05-10T03:14:08.703Z,12.80
2023-05-10T03:16:48.977Z,12.70
2023-05-10T03:19:29.860Z,12.70
2023-05-10T03:22:02.651Z,12.50
2023-05-10T03:24:34.332Z,12.50
2023-05-10T03:27:05.628Z,12.50
2023-05-10T03:29:36.334Z,12.50
2023-05-10T03:32:06.070Z,12.60
2023-05-10T03:34:35.609Z,12.50
2023-05-10T03:37:05.603Z,12.50
2023-05-10T03:39:35.477Z,12.40
2023-05-10T03:42:06.563Z,12.30
2023-05-10T03:44:36.049Z,12.30
2023-05-10T03:47:05.687Z,12.40
2023-05-10T03:49:35.813Z,12.40
2023-05-10T03:52:06.523Z,12.30
2023-05-10T03:54:36.505Z,12.20
2023-05-10T03:57:06.255Z,12.20
2023-05-10T03:59:35.720Z,12.40
2023-05-10T04:02:05.675Z,12.40
2023-05-10T04:04:35.300Z,12.20
2023-05-10T04:07:05.314Z,12.30
2023-05-10T04:09:34.931Z,12.30
2023-05-10T04:12:04.645Z,12.20
2023-05-10T04:14:34.749Z,12.30
2023-05-10T04:17:04.315Z,12.30
2023-05-10T04:19:34.537Z,12.30
2023-05-10T04:22:05.757Z,12.20
2023-05-10T04:24:35.402Z,12.30
2023-05-10T04:27:04.941Z,12.40
2023-05-10T04:29:34.412Z,12.30
2023-05-10T04:32:04.854Z,12.20
2023-05-10T04:34:35.206Z,12.30
2023-05-10T04:37:04.865Z,12.30
2023-05-10T04:39:34.351Z,12.30
2023-05-10T04:42:06.860Z,12.20
2023-05-10T04:44:37.350Z,12.20
2023-05-10T04:47:06.887Z,12.10
2023-05-10T04:49:36.420Z,12.10
2023-05-10T04:52:06.379Z,12.10
2023-05-10T04:54:35.870Z,12.00
2023-05-10T04:57:05.418Z,11.90
2023-05-10T04:59:34.934Z,11.90
2023-05-10T05:02:04.597Z,11.80
2023-05-10T05:04:34.271Z,11.80
2023-05-10T05:07:04.235Z,11.80
2023-05-10T05:09:33.725Z,11.80
2023-05-10T05:12:03.259Z,11.90
2023-05-10T05:14:33.858Z,11.80
2023-05-10T05:17:03.503Z,11.80
2023-05-10T05:19:34.154Z,11.90
2023-05-10T05:22:03.894Z,11.90
2023-05-10T05:24:41.053Z,12.00
2023-05-10T05:27:10.512Z,12.00
2023-05-10T05:29:40.020Z,12.10
2023-05-10T05:32:09.817Z,11.90
2023-05-10T05:34:40.079Z,11.80
2023-05-10T05:37:10.064Z,12.00
2023-05-10T05:39:39.616Z,12.10
2023-05-10T05:42:09.131Z,12.00
2023-05-10T05:44:38.667Z,12.00
2023-05-10T05:47:08.931Z,12.10
2023-05-10T05:49:39.022Z,11.90
2023-05-10T05:52:08.506Z,11.90
2023-05-10T05:54:38.020Z,11.90
2023-05-10T05:57:08.647Z,12.10
2023-05-10T05:59:39.982Z,12.00
2023-05-10T06:02:11.048Z,11.90
2023-05-10T06:04:44.421Z,12.10
2023-05-10T06:07:12.837Z,12.00
2023-05-10T06:09:42.503Z,12.00
2023-05-10T06:12:12.877Z,12.10
2023-05-10T06:14:42.596Z,12.20
2023-05-10T06:17:12.259Z,12.20
2023-05-10T06:19:41.796Z,12.30
2023-05-10T06:22:12.028Z,12.20
2023-05-10T06:24:41.490Z,12.20
2023-05-10T06:27:11.134Z,12.30
2023-05-10T06:29:40.632Z,12.20
2023-05-10T06:32:10.097Z,12.20
2023-05-10T06:34:39.747Z,12.30
2023-05-10T06:37:09.221Z,12.90
2023-05-10T06:39:38.898Z,13.20
2023-05-10T06:42:08.554Z,13.40
2023-05-10T06:44:38.109Z,13.90
2023-05-10T06:47:07.677Z,14.00
2023-05-10T06:49:38.315Z,14.00
2023-05-10T06:52:07.871Z,14.20
2023-05-10T06:54:37.482Z,14.40
2023-05-10T06:57:16.152Z,14.70
2023-05-10T06:59:38.931Z,15.00
2023-05-10T07:02:09.352Z,14.70
2023-05-10T07:04:39.394Z,14.90
2023-05-10T07:07:09.570Z,15.20
2023-05-10T07:09:39.474Z,15.50
2023-05-10T07:12:11.118Z,15.70
2023-05-10T07:14:40.193Z,15.80
2023-05-10T07:17:09.820Z,16.10
2023-05-10T07:19:39.327Z,16.30
2023-05-10T07:22:09.341Z,15.80
2023-05-10T07:24:39.158Z,15.10
2023-05-10T07:27:08.663Z,14.70
2023-05-10T07:29:38.699Z,15.20
2023-05-10T07:32:08.539Z,15.10
2023-05-10T07:34:38.092Z,14.90
2023-05-10T07:37:09.238Z,14.90
2023-05-10T07:39:38.718Z,14.50
2023-05-10T07:42:08.280Z,14.40
2023-05-10T07:44:37.857Z,14.50
2023-05-10T07:47:07.392Z,14.90
2023-05-10T07:49:37.133Z,15.80
2023-05-10T07:52:06.642Z,16.00
2023-05-10T07:54:36.474Z,16.20
2023-05-10T07:57:07.939Z,16.90
2023-05-10T07:59:37.488Z,16.70
2023-05-10T08:02:07.007Z,16.60
2023-05-10T08:04:36.609Z,16.30
2023-05-10T08:07:06.547Z,16.30
2023-05-10T08:09:36.486Z,15.70
2023-05-10T08:12:07.267Z,16.10
2023-05-10T08:14:37.879Z,17.30
2023-05-10T08:17:07.456Z,16.90
2023-05-10T08:19:36.918Z,16.90
2023-05-10T08:22:06.599Z,17.30
2023-05-10T08:24:37.895Z,17.90
2023-05-10T08:27:08.351Z,18.40
2023-05-10T08:29:49.063Z,18.50
2023-05-10T08:32:09.034Z,17.60
2023-05-10T08:34:38.533Z,17.30
2023-05-10T08:37:08.160Z,17.40
2023-05-10T08:39:38.459Z,16.70
2023-05-10T08:42:09.767Z,16.50
2023-05-10T08:44:39.722Z,17.30
2023-05-10T08:47:10.919Z,17.80
2023-05-10T08:49:41.024Z,17.80
2023-05-10T08:52:13.326Z,17.60
2023-05-10T08:54:43.532Z,18.40
2023-05-10T08:57:14.101Z,18.70
2023-05-10T08:59:43.647Z,18.90
2023-05-10T09:02:17.395Z,17.50
2023-05-10T09:04:46.556Z,17.50
2023-05-10T09:07:17.212Z,18.30
2023-05-10T09:09:48.220Z,18.20
2023-05-10T09:12:18.278Z,19.10
2023-05-10T09:14:48.808Z,18.20
2023-05-10T09:17:18.779Z,18.30
2023-05-10T09:19:48.588Z,18.50
2023-05-10T09:22:19.357Z,18.90
2023-05-10T09:24:48.864Z,19.00
2023-05-10T09:27:18.376Z,18.70
2023-05-10T09:29:47.896Z,18.40
2023-05-10T09:32:17.374Z,18.60
2023-05-10T09:34:47.539Z,18.20
2023-05-10T09:37:17.100Z,18.50
2023-05-10T09:39:46.654Z,19.30
2023-05-10T09:42:19.243Z,20.00
2023-05-10T09:44:50.254Z,20.40
2023-05-10T09:47:20.733Z,20.00
2023-05-10T09:49:56.208Z,20.10
2023-05-10T09:52:26.300Z,19.50
2023-05-10T09:54:57.019Z,18.70
2023-05-10T09:57:27.576Z,19.60
2023-05-10T09:59:58.575Z,19.00
2023-05-10T10:02:33.313Z,19.70
2023-05-10T10:05:05.246Z,19.60
2023-05-10T10:07:37.025Z,18.40
2023-05-10T10:10:09.250Z,17.80
2023-05-10T10:12:39.970Z,17.60
2023-05-10T10:15:10.899Z,17.90
2023-05-10T10:17:40.604Z,18.10
2023-05-10T10:20:12.241Z,18.20
2023-05-10T10:22:42.130Z,19.10
2023-05-10T10:25:15.053Z,19.90
2023-05-10T10:27:51.134Z,20.30
2023-05-10T10:30:32.690Z,20.10
2023-05-10T10:33:28.392Z,20.40
2023-05-10T10:35:55.336Z,20.60
2023-05-10T10:38:25.760Z,20.90
2023-05-10T10:41:06.541Z,20.90
2023-05-10T10:43:36.286Z,20.90
2023-05-10T10:46:18.555Z,21.40
2023-05-10T10:48:54.578Z,21.30
2023-05-10T10:51:24.115Z,21.30
2023-05-10T10:53:53.584Z,20.80
2023-05-10T10:56:25.309Z,20.40
2023-05-10T10:58:55.019Z,19.90
2023-05-10T11:01:24.794Z,19.30
2023-05-10T11:04:08.902Z,18.80
2023-05-10T11:06:38.721Z,18.90
2023-05-10T11:09:11.244Z,18.80
2023-05-10T11:11:59.181Z,19.00
2023-05-10T11:14:29.140Z,19.00
2023-05-10T11:16:58.752Z,18.50
2023-05-10T11:19:30.250Z,18.10
2023-05-10T11:22:08.787Z,17.50
2023-05-10T11:24:38.458Z,17.40
2023-05-10T11:27:10.817Z,17.70
2023-05-10T11:29:40.493Z,17.60
2023-05-10T11:32:10.460Z,17.50
2023-05-10T11:34:41.332Z,17.30
2023-05-10T11:37:11.007Z,17.30
2023-05-10T11:39:40.478Z,17.30
2023-05-10T11:42:11.104Z,17.40
2023-05-10T11:44:41.889Z,17.90
2023-05-10T11:47:11.577Z,17.70
2023-05-10T11:49:41.167Z,18.00
2023-05-10T11:52:12.472Z,19.30
2023-05-10T11:54:55.847Z,19.40
2023-05-10T11:57:29.693Z,19.00
2023-05-10T12:00:00.391Z,19.60
2023-05-10T12:02:31.438Z,19.20
2023-05-10T12:05:01.757Z,19.70
2023-05-10T12:07:31.440Z,20.30
2023-05-10T12:10:14.864Z,20.80
2023-05-10T12:12:46.759Z,20.60
2023-05-10T12:15:22.344Z,20.20
2023-05-10T12:17:53.040Z,19.60
2023-05-10T12:20:24.872Z,19.00
2023-05-10T12:22:59.679Z,19.10
2023-05-10T12:25:34.450Z,19.30
2023-05-10T12:28:06.962Z,19.70
2023-05-10T12:30:38.547Z,19.40
2023-05-10T12:33:18.289Z,19.00
2023-05-10T12:35:57.909Z,20.10
2023-05-10T12:38:33.488Z,20.40
2023-05-10T12:41:11.267Z,20.60
2023-05-10T12:43:42.023Z,20.90
2023-05-10T12:46:16.758Z,20.90
2023-05-10T12:48:49.188Z,21.10
2023-05-10T12:51:21.267Z,21.40
2023-05-10T12:53:50.809Z,21.10
2023-05-10T12:56:20.264Z,21.10
2023-05-10T12:58:49.840Z,20.90
2023-05-10T13:01:19.425Z,21.30
2023-05-10T13:03:48.962Z,21.50
2023-05-10T13:06:18.642Z,21.30
2023-05-10T13:08:50.263Z,20.50
2023-05-10T13:11:21.326Z,20.10
2023-05-10T13:13:50.972Z,21.10
2023-05-10T13:16:21.022Z,21.90
2023-05-10T13:18:50.637Z,21.40
2023-05-10T13:21:20.143Z,21.40
2023-05-10T13:23:50.037Z,21.20
2023-05-10T13:26:19.477Z,21.10
2023-05-10T13:28:50.096Z,21.80
2023-05-10T13:31:19.635Z,21.40
2023-05-10T13:33:49.162Z,20.80
2023-05-10T13:36:18.726Z,20.00
2023-05-10T13:38:48.144Z,20.30
2023-05-10T13:41:17.623Z,20.80
2023-05-10T13:43:47.157Z,21.30
2023-05-10T13:46:16.719Z,21.60
2023-05-10T13:48:46.197Z,20.90
2023-05-10T13:51:15.683Z,21.40
2023-05-10T13:53:45.149Z,21.40
2023-05-10T13:56:15.438Z,22.00
2023-05-10T13:58:45.483Z,21.20
2023-05-10T14:01:15.046Z,21.30
2023-05-10T14:03:45.058Z,20.70
2023-05-10T14:06:15.024Z,19.60
2023-05-10T14:08:44.896Z,19.40
2023-05-10T14:11:15.371Z,19.10
2023-05-10T14:13:44.798Z,19.10
2023-05-10T14:16:16.007Z,18.90
2023-05-10T14:18:45.903Z,18.90
2023-05-10T14:21:16.567Z,18.70
2023-05-10T14:23:46.067Z,18.40
2023-05-10T14:26:15.519Z,18.00
2023-05-10T14:28:45.252Z,17.70
2023-05-10T14:31:15.273Z,17.50
2023-05-10T14:33:44.732Z,17.80
2023-05-10T14:36:15.508Z,17.90
2023-05-10T14:38:45.026Z,18.00
2023-05-10T14:41:16.273Z,18.10
2023-05-10T14:43:45.780Z,18.10
2023-05-10T14:46:15.288Z,18.40
2023-05-10T14:48:44.939Z,18.60
2023-05-10T14:51:14.423Z,18.80
2023-05-10T14:53:44.375Z,18.80
2023-05-10T14:56:14.266Z,18.60
2023-05-10T14:58:43.695Z,18.70
2023-05-10T15:01:13.794Z,19.00
2023-05-10T15:03:43.953Z,19.30
2023-05-10T15:06:18.445Z,19.30
2023-05-10T15:08:48.371Z,19.30
2023-05-10T15:11:17.850Z,19.30
2023-05-10T15:13:47.303Z,19.10
2023-05-10T15:16:16.774Z,19.00
2023-05-10T15:18:46.451Z,18.70
2023-05-10T15:21:16.344Z,18.50
2023-05-10T15:23:46.138Z,18.00
2023-05-10T15:26:15.675Z,17.80
2023-05-10T15:28:47.152Z,17.50
2023-05-10T15:31:16.916Z,17.20
2023-05-10T15:33:46.353Z,16.90
2023-05-10T15:36:16.472Z,16.90
2023-05-10T15:38:46.875Z,16.90
2023-05-10T15:41:16.694Z,16.90
2023-05-10T15:43:46.224Z,16.80
2023-05-10T15:46:15.855Z,17.10
2023-05-10T15:48:45.350Z,17.20
2023-05-10T15:51:16.600Z,17.40
2023-05-10T15:54:00.460Z,17.90
2023-05-10T15:56:17.904Z,17.80
2023-05-10T15:58:48.049Z,17.60
2023-05-10T16:01:17.783Z,18.00
2023-05-10T16:03:47.719Z,18.40
2023-05-10T16:06:17.437Z,18.60
2023-05-10T16:08:47.003Z,18.50
2023-05-10T16:11:17.225Z,18.50
2023-05-10T16:13:46.794Z,18.30
2023-05-10T16:16:16.867Z,17.80
2023-05-10T16:18:46.714Z,17.50
2023-05-10T16:21:16.622Z,17.30
2023-05-10T16:23:47.290Z,17.00
2023-05-10T16:26:16.925Z,17.10
2023-05-10T16:28:46.398Z,17.10
2023-05-10T16:31:16.364Z,16.80
2023-05-10T16:33:45.975Z,16.70
2023-05-10T16:36:15.526Z,16.60
2023-05-10T16:38:45.034Z,16.50
2023-05-10T16:41:14.528Z,16.30
2023-05-10T16:43:44.030Z,16.30
2023-05-10T16:46:14.622Z,16.30
2023-05-10T16:48:46.004Z,16.10
2023-05-10T16:51:15.671Z,16.10
2023-05-10T16:53:45.325Z,16.10
2023-05-10T16:56:14.899Z,16.20
2023-05-10T16:58:44.452Z,16.30
2023-05-10T17:01:13.978Z,16.40
2023-05-10T17:03:43.638Z,16.20
2023-05-10T17:06:14.385Z,16.30
2023-05-10T17:08:44.000Z,16.30
2023-05-10T17:11:14.073Z,16.10
2023-05-10T17:13:43.601Z,16.00
2023-05-10T17:16:13.378Z,16.10
2023-05-10T17:18:42.970Z,16.10
2023-05-10T17:21:12.593Z,16.20
2023-05-10T17:23:42.448Z,16.20
2023-05-10T17:26:12.003Z,16.00
2023-05-10T17:28:41.494Z,16.00
2023-05-10T17:31:12.119Z,15.90
2023-05-10T17:33:42.431Z,16.00
2023-05-10T17:36:11.904Z,16.00
2023-05-10T17:38:41.409Z,16.10
2023-05-10T17:41:10.878Z,16.30
2023-05-10T17:43:40.402Z,16.30
2023-05-10T17:46:10.049Z,16.40
2023-05-10T17:48:39.767Z,16.40
2023-05-10T17:51:09.496Z,16.40
2023-05-10T17:53:41.118Z,16.50
2023-05-10T17:56:10.633Z,16.70
2023-05-10T17:58:40.094Z,16.60
2023-05-10T18:01:09.725Z,16.50
2023-05-10T18:03:39.469Z,16.30
2023-05-10T18:06:09.023Z,16.10
2023-05-10T18:08:38.582Z,16.20
2023-05-10T18:11:08.390Z,16.10
2023-05-10T18:13:38.318Z,16.10
2023-05-10T18:16:09.453Z,16.00
2023-05-10T18:18:40.166Z,16.10
2023-05-10T18:21:10.926Z,16.20
2023-05-10T18:23:40.595Z,16.00
2023-05-10T18:26:10.951Z,15.80
2023-05-10T18:28:40.441Z,15.60
2023-05-10T18:31:10.255Z,15.60
2023-05-10T18:33:40.289Z,15.30
2023-05-10T18:36:09.979Z,15.00
2023-05-10T18:38:40.457Z,14.80
2023-05-10T18:41:11.698Z,14.70
2023-05-10T18:43:42.733Z,14.70
2023-05-10T18:46:12.298Z,14.80
2023-05-10T18:48:41.803Z,15.00
2023-05-10T18:51:12.884Z,15.00
2023-05-10T18:53:42.581Z,15.00
2023-05-10T18:56:12.046Z,15.10
2023-05-10T18:58:41.565Z,15.10
2023-05-10T19:01:11.053Z,15.30
2023-05-10T19:03:40.602Z,15.20
2023-05-10T19:06:10.848Z,15.10
2023-05-10T19:08:40.361Z,15.10
2023-05-10T19:11:10.073Z,15.20
2023-05-10T19:13:40.052Z,15.30
2023-05-10T19:16:16.625Z,15.20
2023-05-10T19:18:46.981Z,15.30
2023-05-10T19:21:17.450Z,15.30
2023-05-10T19:23:48.912Z,15.30
2023-05-10T19:26:18.890Z,15.10
2023-05-10T19:28:48.632Z,15.00
2023-05-10T19:31:18.208Z,15.00
2023-05-10T19:33:49.132Z,14.90
2023-05-10T19:36:18.704Z,14.80
2023-05-10T19:38:48.969Z,14.90
2023-05-10T19:41:21.197Z,14.80
2023-05-10T19:43:52.768Z,14.80
2023-05-10T19:46:21.956Z,14.70
2023-05-10T19:48:51.494Z,14.80
2023-05-10T19:51:21.047Z,14.80
2023-05-10T19:54:00.390Z,14.70
2023-05-10T19:56:30.023Z,14.70
2023-05-10T19:58:59.584Z,14.70
2023-05-10T20:01:29.108Z,14.50
2023-05-10T20:03:58.682Z,14.70
2023-05-10T20:06:29.658Z,14.70
2023-05-10T20:08:59.143Z,14.50
2023-05-10T20:11:28.633Z,14.70
2023-05-10T20:13:58.243Z,14.60
2023-05-10T20:16:27.803Z,14.60
2023-05-10T20:18:57.388Z,14.40
2023-05-10T20:21:27.091Z,14.50
2023-05-10T20:23:56.931Z,14.60
2023-05-10T20:26:27.457Z,14.50
2023-05-10T20:28:56.923Z,14.70
2023-05-10T20:31:26.461Z,14.60
2023-05-10T20:33:56.084Z,14.60
2023-05-10T20:36:26.730Z,14.50
2023-05-10T20:38:56.652Z,14.50
2023-05-10T20:41:26.909Z,14.30
2023-05-10T20:43:56.451Z,14.50
2023-05-10T20:46:27.210Z,14.30
2023-05-10T20:48:56.965Z,14.20
2023-05-10T20:51:28.886Z,14.20
2023-05-10T20:53:58.567Z,14.20
2023-05-10T20:56:28.235Z,14.30
2023-05-10T20:58:57.784Z,14.30
2023-05-10T21:01:27.448Z,14.20
2023-05-10T21:03:56.953Z,14.10
2023-05-10T21:06:26.444Z,14.20
2023-05-10T21:08:56.279Z,14.20
2023-05-10T21:11:25.769Z,14.20
2023-05-10T21:13:55.363Z,14.10
2023-05-10T21:16:24.939Z,14.00
2023-05-10T21:18:54.530Z,13.90
2023-05-10T21:21:24.168Z,14.00
2023-05-10T21:23:53.890Z,14.00
2023-05-10T21:26:23.380Z,14.10
2023-05-10T21:28:52.894Z,14.00
2023-05-10T21:31:22.593Z,14.00
2023-05-10T21:33:52.043Z,13.90
2023-05-10T21:36:21.566Z,14.00
2023-05-10T21:38:51.328Z,14.00
2023-05-10T21:41:22.054Z,13.90
2023-05-10T21:43:51.614Z,14.00
2023-05-10T21:46:21.151Z,13.90
2023-05-10T21:48:50.708Z,13.90
2023-05-10T21:51:22.083Z,14.10
2023-05-10T21:53:51.638Z,14.10
2023-05-10T21:56:21.125Z,14.00
2023-05-10T21:58:50.982Z,13.80
2023-05-10T22:01:20.598Z,13.80
2023-05-10T22:03:50.382Z,13.50
2023-05-10T22:06:19.922Z,13.60
2023-05-10T22:08:49.416Z,13.60
2023-05-10T22:11:18.867Z,13.30
2023-05-10T22:13:48.952Z,13.30
2023-05-10T22:16:18.525Z,13.20
2023-05-10T22:18:48.378Z,13.10
2023-05-10T22:21:18.122Z,13.20
2023-05-10T22:23:47.772Z,13.30
2023-05-10T22:26:17.297Z,13.30
2023-05-10T22:28:46.981Z,13.20
2023-05-10T22:31:16.751Z,13.20
2023-05-10T22:33:46.298Z,13.10
2023-05-10T22:36:16.329Z,13.20
2023-05-10T22:38:45.989Z,13.20
2023-05-10T22:41:15.461Z,13.40
2023-05-10T22:43:45.745Z,13.30
2023-05-10T22:46:15.725Z,13.30
2023-05-10T22:48:45.482Z,13.30
2023-05-10T22:51:14.962Z,13.40
2023-05-10T22:53:44.451Z,13.40
2023-05-10T22:56:14.379Z,13.30
2023-05-10T22:58:43.961Z,13.30
2023-05-10T23:01:14.400Z,13.10
2023-05-10T23:03:44.002Z,13.10
2023-05-10T23:06:13.466Z,13.10
2023-05-10T23:08:43.788Z,13.00
2023-05-10T23:11:13.278Z,13.00
2023-05-10T23:13:42.749Z,12.80
2023-05-10T23:16:13.055Z,12.70
2023-05-10T23:18:43.399Z,12.70
2023-05-10T23:21:12.882Z,12.90
2023-05-10T23:23:42.809Z,12.70
2023-05-10T23:26:12.903Z,12.70
2023-05-10T23:28:42.472Z,12.80
2023-05-10T23:31:12.015Z,12.70
2023-05-10T23:33:41.946Z,12.50
2023-05-10T23:36:11.493Z,12.60
2023-05-10T23:38:41.557Z,12.60
2023-05-10T23:41:11.119Z,12.60
2023-05-10T23:43:40.580Z,12.70
2023-05-10T23:46:10.516Z,12.50
2023-05-10T23:48:40.037Z,12.60
2023-05-10T23:51:09.585Z,12.60
2023-05-10T23:53:39.086Z,12.60
2023-05-10T23:56:08.643Z,12.60
2023-05-10T23:58:38.115Z,12.50
